Cascade — 3EOZ3 — position and weather

sailwx.info

Track history (hours):
 
Tides and Currents Weather Stations Pressure Air Temp Water Temp Dewpoint Dewpoint Depression Visibility Wind Speed Wind Dir Waves Ship Positions

Cascade

Last reported at 2017-Dec-11 20:54 UTC. Time now 2017-Dec-17 17:54 UTC.
Position N 24°26' E 122°06'.

Length 177 m; draft 10.9 m.

Type: Cargo ship. MMSI: 351262000.

Date/timePositionNaut miles runAvg speedWind from/ knotsBaromVisibWave heightAir tempDewpointWater temp
2017-Dec-11 20:54N 24°26' E 122°06'8 8.9
2017-Dec-11 19:59N 24°34' E 122°08'5 8.6
2017-Dec-11 19:24N 24°39' E 122°09'4 8.2
2017-Dec-11 18:56N 24°42' E 122°10'4 8.6
2017-Dec-11 18:29N 24°46' E 122°12'4 9.0
2017-Dec-11 18:00N 24°50' E 122°13'5 9.3
2017-Dec-11 17:28N 24°55' E 122°14'37110.1
2017-Dec-10 04:51N 31°06' E 122°25'4 8.2
2017-Dec-10 04:22N 31°06' E 122°20'3 9.0
2017-Dec-10 03:59N 31°07' E 122°16'610.6
2017-Dec-10 03:27N 31°11' E 122°11'611.5
2017-Dec-10 02:56N 31°14' E 122°05'513.0
2017-Dec-10 02:30N 31°15' E 121°59'  
Track history (hours):
 
Tides and Currents Weather Stations Pressure Air Temp Water Temp Dewpoint Dewpoint Depression Visibility Wind Speed Wind Dir Waves Ship Positions

Cascade

Last reported at 2017-Dec-11 20:54 UTC. Time now 2017-Dec-17 17:54 UTC.
Position N 24°26' E 122°06'.

Length 177 m; draft 10.9 m.

Type: Cargo ship. MMSI: 351262000.

Date/timePositionNaut miles runAvg speedWind from/ knotsBaromVisibWave heightAir tempDewpointWater temp
2017-Dec-11 20:54N 24°26' E 122°06'8 8.9
2017-Dec-11 19:59N 24°34' E 122°08'5 8.6
2017-Dec-11 19:24N 24°39' E 122°09'4 8.2
2017-Dec-11 18:56N 24°42' E 122°10'4 8.6
2017-Dec-11 18:29N 24°46' E 122°12'4 9.0
2017-Dec-11 18:00N 24°50' E 122°13'5 9.3
2017-Dec-11 17:28N 24°55' E 122°14'37110.1
2017-Dec-10 04:51N 31°06' E 122°25'4 8.2
2017-Dec-10 04:22N 31°06' E 122°20'3 9.0
2017-Dec-10 03:59N 31°07' E 122°16'610.6
2017-Dec-10 03:27N 31°11' E 122°11'611.5
2017-Dec-10 02:56N 31°14' E 122°05'513.0
2017-Dec-10 02:30N 31°15' E 121°59'  

Dump ship's entire track history